createdAt,value
2019-03-12T00:00:53.486Z,3.20
2019-03-12T00:03:22.497Z,3.13
2019-03-12T00:05:51.415Z,3.03
2019-03-12T00:08:20.234Z,3.70
2019-03-12T00:10:49.290Z,3.60
2019-03-12T00:13:18.090Z,3.83
2019-03-12T00:15:47.007Z,3.37
2019-03-12T00:18:15.937Z,3.50
2019-03-12T00:20:44.859Z,4.10
2019-03-12T00:23:13.728Z,3.53
2019-03-12T00:25:42.670Z,4.10
2019-03-12T00:28:11.656Z,3.70
2019-03-12T00:30:40.477Z,4.03
2019-03-12T00:33:09.411Z,3.67
2019-03-12T00:35:38.287Z,4.00
2019-03-12T00:38:07.173Z,3.30
2019-03-12T00:40:36.144Z,4.33
2019-03-12T00:43:05.093Z,4.07
2019-03-12T00:45:34.008Z,3.93
2019-03-12T00:48:02.852Z,3.53
2019-03-12T00:50:31.726Z,3.80
2019-03-12T00:53:00.553Z,3.50
2019-03-12T00:55:29.434Z,4.00
2019-03-12T00:57:58.273Z,4.10
2019-03-12T01:00:27.219Z,3.50
2019-03-12T01:02:56.190Z,4.30
2019-03-12T01:05:25.205Z,4.13
2019-03-12T01:07:54.192Z,3.80
2019-03-12T01:10:23.286Z,3.20
2019-03-12T01:12:52.237Z,3.40
2019-03-12T01:15:21.189Z,2.83
2019-03-12T01:17:50.149Z,2.90
2019-03-12T01:20:19.170Z,2.80
2019-03-12T01:22:48.070Z,3.13
2019-03-12T01:25:16.983Z,3.17
2019-03-12T01:27:45.924Z,3.50
2019-03-12T01:30:16.334Z,3.30
2019-03-12T01:32:45.236Z,3.10
2019-03-12T01:35:14.386Z,3.30
2019-03-12T01:37:43.271Z,3.47
2019-03-12T01:40:13.026Z,2.83
2019-03-12T01:42:42.144Z,2.90
2019-03-12T01:45:13.153Z,2.90
2019-03-12T01:47:42.132Z,3.40
2019-03-12T01:50:11.319Z,5.10
2019-03-12T01:52:40.293Z,3.30
2019-03-12T01:55:09.986Z,3.77
2019-03-12T01:57:38.814Z,3.07
2019-03-12T02:00:09.997Z,3.63
2019-03-12T02:02:38.973Z,3.30
2019-03-12T02:05:08.150Z,4.67
2019-03-12T02:07:37.159Z,3.23
2019-03-12T02:10:06.593Z,3.37
2019-03-12T02:12:35.657Z,3.93
2019-03-12T02:15:05.865Z,4.33
2019-03-12T02:17:34.785Z,4.37
2019-03-12T02:20:04.218Z,4.23
2019-03-12T02:22:33.238Z,4.83
2019-03-12T02:25:02.193Z,4.47
2019-03-12T02:27:31.093Z,5.17
2019-03-12T02:29:59.976Z,4.47
2019-03-12T02:32:28.894Z,5.03
2019-03-12T02:34:57.754Z,5.57
2019-03-12T02:37:26.571Z,5.30
2019-03-12T02:39:55.395Z,5.00
2019-03-12T02:42:24.292Z,5.70
2019-03-12T02:44:53.287Z,5.47
2019-03-12T02:47:22.155Z,5.27
2019-03-12T02:49:51.054Z,5.70
2019-03-12T02:52:19.862Z,6.53
2019-03-12T02:54:48.705Z,6.57
2019-03-12T02:57:17.632Z,8.13
2019-03-12T02:59:46.696Z,5.90
2019-03-12T03:02:15.593Z,5.80
2019-03-12T03:04:44.730Z,7.37
2019-03-12T03:07:18.868Z,5.80
2019-03-12T03:09:47.788Z,6.17
2019-03-12T03:12:16.622Z,6.10
2019-03-12T03:14:45.525Z,5.90
2019-03-12T03:17:16.070Z,6.90
2019-03-12T03:19:44.977Z,5.20
2019-03-12T03:22:13.866Z,6.20
2019-03-12T03:24:42.776Z,6.73
2019-03-12T03:27:11.624Z,5.77
2019-03-12T03:29:40.520Z,5.70
2019-03-12T03:32:09.446Z,6.70
2019-03-12T03:34:38.495Z,6.40
2019-03-12T03:37:07.383Z,5.33
2019-03-12T03:39:36.287Z,5.73
2019-03-12T03:42:05.255Z,6.60
2019-03-12T03:44:34.085Z,6.67
2019-03-12T03:47:02.941Z,6.00
2019-03-12T03:49:31.818Z,5.27
2019-03-12T03:52:00.656Z,6.00
2019-03-12T03:54:29.475Z,6.30
2019-03-12T03:56:58.356Z,5.90
2019-03-12T03:59:27.202Z,6.57
2019-03-12T04:01:56.118Z,5.77
2019-03-12T04:04:25.106Z,5.13
2019-03-12T04:06:53.953Z,5.10
2019-03-12T04:09:22.998Z,7.23
2019-03-12T04:11:51.874Z,5.83
2019-03-12T04:14:20.860Z,5.47
2019-03-12T04:16:49.716Z,5.70
2019-03-12T04:19:18.620Z,5.60
2019-03-12T04:21:47.503Z,6.47
2019-03-12T04:24:16.415Z,4.80
2019-03-12T04:26:45.306Z,5.30
2019-03-12T04:29:14.367Z,5.10
2019-03-12T04:31:43.303Z,5.57
2019-03-12T04:34:41.526Z,4.90
2019-03-12T04:37:10.422Z,5.50
2019-03-12T04:39:39.350Z,4.70
2019-03-12T04:42:08.298Z,5.50
2019-03-12T04:44:37.156Z,5.30
2019-03-12T04:47:06.121Z,5.20
2019-03-12T04:49:35.062Z,5.30
2019-03-12T04:52:04.101Z,4.57
2019-03-12T04:54:33.009Z,5.07
2019-03-12T04:57:02.071Z,4.20
2019-03-12T04:59:30.911Z,4.63
2019-03-12T05:01:59.802Z,4.83
2019-03-12T05:04:28.732Z,4.17
2019-03-12T05:06:57.654Z,4.70
2019-03-12T05:09:26.645Z,6.10
2019-03-12T05:11:55.570Z,3.97
2019-03-12T05:14:34.599Z,3.60
2019-03-12T05:17:27.315Z,5.17
2019-03-12T05:19:56.262Z,3.43
2019-03-12T05:22:25.653Z,4.60
2019-03-12T05:24:54.558Z,3.30
2019-03-12T05:27:25.012Z,4.23
2019-03-12T05:29:54.115Z,3.47
2019-03-12T05:32:23.225Z,3.33
2019-03-12T05:34:52.202Z,3.20
2019-03-12T05:37:21.334Z,3.73
2019-03-12T05:39:50.147Z,3.50
2019-03-12T05:42:19.057Z,3.77
2019-03-12T05:44:47.970Z,4.77
2019-03-12T05:47:16.782Z,2.90
2019-03-12T05:49:45.726Z,4.10
2019-03-12T05:52:14.567Z,3.17
2019-03-12T05:54:43.380Z,4.30
2019-03-12T05:57:12.290Z,4.10
2019-03-12T05:59:41.290Z,3.93
2019-03-12T06:02:10.303Z,4.30
2019-03-12T06:04:39.318Z,5.30
2019-03-12T06:07:08.214Z,2.90
2019-03-12T06:09:37.093Z,3.63
2019-03-12T06:12:06.080Z,3.50
2019-03-12T06:14:34.891Z,5.13
2019-03-12T06:17:03.808Z,3.60
2019-03-12T06:19:32.646Z,4.53
2019-03-12T06:22:01.606Z,3.53
2019-03-12T06:24:30.690Z,4.70
2019-03-12T06:26:59.602Z,3.43
2019-03-12T06:29:28.417Z,4.33
2019-03-12T06:32:34.517Z,4.17
2019-03-12T06:35:11.526Z,3.70
2019-03-12T06:37:46.091Z,3.90
2019-03-12T06:40:37.141Z,4.50
2019-03-12T06:43:29.667Z,3.90
2019-03-12T06:46:12.945Z,4.37
2019-03-12T06:48:52.486Z,3.43
2019-03-12T06:51:46.601Z,3.57
2019-03-12T06:54:31.750Z,4.10
2019-03-12T06:57:18.757Z,4.20
2019-03-12T07:00:09.786Z,4.00
2019-03-12T07:02:56.708Z,3.60
2019-03-12T07:05:43.494Z,3.50
2019-03-12T07:08:23.821Z,4.23
2019-03-12T07:11:14.834Z,3.83
2019-03-12T07:14:02.799Z,3.00
2019-03-12T07:17:02.817Z,3.33
2019-03-12T07:19:49.480Z,4.13
2019-03-12T07:22:40.739Z,3.67
2019-03-12T07:25:37.920Z,4.63
2019-03-12T07:28:23.161Z,3.63
2019-03-12T07:31:05.137Z,4.23
2019-03-12T07:33:54.359Z,2.90
2019-03-12T07:36:30.675Z,3.10
2019-03-12T07:39:30.618Z,4.50
2019-03-12T07:42:18.526Z,4.20
2019-03-12T07:44:58.190Z,3.53
2019-03-12T07:47:49.254Z,3.53
2019-03-12T07:50:37.165Z,3.80
2019-03-12T07:53:25.309Z,3.73
2019-03-12T07:56:07.125Z,3.30
2019-03-12T07:58:46.335Z,3.93
2019-03-12T08:01:25.178Z,3.10
2019-03-12T08:04:22.167Z,3.33
2019-03-12T08:07:01.673Z,3.40
2019-03-12T08:09:36.975Z,3.13
2019-03-12T08:12:20.780Z,3.17
2019-03-12T08:15:00.779Z,4.10
2019-03-12T08:17:41.715Z,3.20
2019-03-12T08:20:15.761Z,3.27
2019-03-12T08:22:50.926Z,3.10
2019-03-12T08:25:54.176Z,3.40
2019-03-12T08:28:48.218Z,3.70
2019-03-12T08:31:36.766Z,3.73
2019-03-12T08:34:21.248Z,3.67
2019-03-12T08:36:58.410Z,2.30
2019-03-12T08:39:40.386Z,2.60
2019-03-12T08:42:33.331Z,2.90
2019-03-12T08:45:16.586Z,3.13
2019-03-12T08:48:13.880Z,3.67
2019-03-12T08:51:05.348Z,4.10
2019-03-12T08:53:53.593Z,3.07
2019-03-12T08:56:53.721Z,2.90
2019-03-12T08:59:37.773Z,3.30
2019-03-12T09:02:28.599Z,4.63
2019-03-12T09:05:03.797Z,3.30
2019-03-12T09:07:42.518Z,4.00
2019-03-12T09:10:21.430Z,4.67
2019-03-12T09:13:04.573Z,2.93
2019-03-12T09:15:51.284Z,3.60
2019-03-12T09:18:38.034Z,3.33
2019-03-12T09:21:12.089Z,2.70
2019-03-12T09:23:57.378Z,3.27
2019-03-12T09:26:38.156Z,3.00
2019-03-12T09:29:25.269Z,3.87
2019-03-12T09:32:11.978Z,3.20
2019-03-12T09:34:58.995Z,3.70
2019-03-12T09:37:53.182Z,3.27
2019-03-12T09:40:29.426Z,3.93
2019-03-12T09:43:32.829Z,3.60
2019-03-12T09:46:11.335Z,4.57
2019-03-12T09:48:58.459Z,4.57
2019-03-12T09:51:45.190Z,4.30
2019-03-12T09:54:37.445Z,3.70
2019-03-12T09:57:34.601Z,3.60
2019-03-12T10:00:21.740Z,4.30
2019-03-12T10:03:07.782Z,4.20
2019-03-12T10:05:55.721Z,3.20
2019-03-12T10:08:42.809Z,2.60
2019-03-12T10:11:46.333Z,3.43
2019-03-12T10:14:32.929Z,3.60
2019-03-12T10:17:26.952Z,2.50
2019-03-12T10:20:13.585Z,3.30
2019-03-12T10:22:47.843Z,3.30
2019-03-12T10:25:34.535Z,3.43
2019-03-12T10:28:31.693Z,3.40
2019-03-12T10:31:07.859Z,2.90
2019-03-12T10:34:14.151Z,2.70
2019-03-12T10:37:11.872Z,3.13
2019-03-12T10:40:09.771Z,3.40
2019-03-12T10:42:48.802Z,2.77
2019-03-12T10:45:27.345Z,3.10
2019-03-12T10:47:56.708Z,3.10
2019-03-12T10:50:25.670Z,3.00
2019-03-12T10:52:54.567Z,3.07
2019-03-12T10:55:23.558Z,4.10
2019-03-12T10:57:52.463Z,2.50
2019-03-12T11:00:21.372Z,2.83
2019-03-12T11:02:50.334Z,2.87
2019-03-12T11:05:19.691Z,3.40
2019-03-12T11:07:48.758Z,3.03
2019-03-12T11:10:17.851Z,3.10
2019-03-12T11:12:47.035Z,2.80
2019-03-12T11:15:16.333Z,3.00
2019-03-12T11:17:50.065Z,3.63
2019-03-12T11:20:16.056Z,3.30
2019-03-12T11:22:45.016Z,3.70
2019-03-12T11:25:26.307Z,2.90
2019-03-12T11:27:45.043Z,2.63
2019-03-12T11:30:14.974Z,3.53
2019-03-12T11:32:43.877Z,2.90
2019-03-12T11:35:13.232Z,3.00
2019-03-12T11:37:42.204Z,3.17
2019-03-12T11:40:14.690Z,2.90
2019-03-12T11:42:43.582Z,2.57
2019-03-12T11:45:17.107Z,2.80
2019-03-12T11:47:43.549Z,3.00
2019-03-12T11:50:15.103Z,3.60
2019-03-12T11:52:52.649Z,2.63
2019-03-12T11:55:15.757Z,2.83
2019-03-12T11:57:44.765Z,2.60
2019-03-12T12:00:19.532Z,2.63
2019-03-12T12:02:59.398Z,2.60
2019-03-12T12:05:19.366Z,2.80
2019-03-12T12:07:48.170Z,2.20
2019-03-12T12:10:17.693Z,2.60
2019-03-12T12:12:46.829Z,3.20
2019-03-12T12:15:16.740Z,2.60
2019-03-12T12:17:49.035Z,2.77
2019-03-12T12:20:28.991Z,2.50
2019-03-12T12:22:47.469Z,2.23
2019-03-12T12:25:16.462Z,2.20
2019-03-12T12:27:45.675Z,4.00
2019-03-12T12:30:16.370Z,2.80
2019-03-12T12:32:45.297Z,2.57
2019-03-12T12:35:14.558Z,2.80
2019-03-12T12:37:43.431Z,2.23
2019-03-12T12:40:14.092Z,2.23
2019-03-12T12:42:42.995Z,2.50
2019-03-12T12:45:16.822Z,2.77
2019-03-12T12:47:45.710Z,2.80
2019-03-12T12:50:15.500Z,3.17
2019-03-12T12:52:44.476Z,2.50
2019-03-12T12:55:14.097Z,2.80
2019-03-12T12:57:43.214Z,2.43
2019-03-12T13:00:16.139Z,2.53
2019-03-12T13:02:45.234Z,2.50
2019-03-12T13:05:15.292Z,2.80
2019-03-12T13:07:44.838Z,2.60
2019-03-12T13:10:16.766Z,2.57
2019-03-12T13:12:46.531Z,2.53
2019-03-12T13:15:15.742Z,3.03
2019-03-12T13:17:44.696Z,2.80
2019-03-12T13:20:14.151Z,2.40
2019-03-12T13:22:43.105Z,3.57
2019-03-12T13:25:12.396Z,3.00
2019-03-12T13:27:42.734Z,3.40
2019-03-12T13:30:14.579Z,3.27
2019-03-12T13:32:43.475Z,3.60
2019-03-12T13:35:13.066Z,3.90
2019-03-12T13:37:42.223Z,3.40
2019-03-12T13:40:12.681Z,3.80
2019-03-12T13:42:41.888Z,3.80
2019-03-12T13:45:12.632Z,3.30
2019-03-12T13:47:41.966Z,3.53
2019-03-12T13:50:11.523Z,3.87
2019-03-12T13:52:40.632Z,4.50
2019-03-12T13:55:10.507Z,4.37
2019-03-12T13:57:39.543Z,3.90
2019-03-12T14:00:12.129Z,3.27
2019-03-12T14:02:41.017Z,5.30
2019-03-12T14:05:10.444Z,3.37
2019-03-12T14:07:39.427Z,3.97
2019-03-12T14:10:10.468Z,3.43
2019-03-12T14:12:39.784Z,4.33
2019-03-12T14:15:11.034Z,5.07
2019-03-12T14:17:39.990Z,4.03
2019-03-12T14:20:58.670Z,3.57
2019-03-12T14:23:42.779Z,3.90
2019-03-12T14:26:13.402Z,3.90
2019-03-12T14:28:42.411Z,3.00
2019-03-12T14:31:11.399Z,3.47
2019-03-12T14:33:40.522Z,3.50
2019-03-12T14:36:09.706Z,2.87
2019-03-12T14:38:38.649Z,3.80
2019-03-12T14:41:07.632Z,2.50
2019-03-12T14:43:36.617Z,4.23
2019-03-12T14:46:05.566Z,3.37
2019-03-12T14:48:55.259Z,3.80
2019-03-12T14:51:52.930Z,3.60
2019-03-12T14:54:21.759Z,3.17
2019-03-12T14:56:50.570Z,3.20
2019-03-12T14:59:19.425Z,3.60
2019-03-12T15:01:48.341Z,3.43
2019-03-12T15:04:17.246Z,3.13
2019-03-12T15:06:46.186Z,3.70
2019-03-12T15:09:16.298Z,3.33
2019-03-12T15:11:45.349Z,3.33
2019-03-12T15:14:14.317Z,3.40
2019-03-12T15:16:43.301Z,3.13
2019-03-12T15:19:12.240Z,3.80
2019-03-12T15:21:41.146Z,3.20
2019-03-12T15:24:10.093Z,2.90
2019-03-12T15:26:38.961Z,3.23
2019-03-12T15:29:07.817Z,2.80
2019-03-12T15:31:36.621Z,3.60
2019-03-12T15:34:05.620Z,3.30
2019-03-12T15:36:34.558Z,4.03
2019-03-12T15:39:04.637Z,4.27
2019-03-12T15:41:33.521Z,4.43
2019-03-12T15:44:02.909Z,3.77
2019-03-12T15:46:31.914Z,3.53
2019-03-12T15:49:01.108Z,3.00
2019-03-12T15:51:30.006Z,3.83
2019-03-12T15:53:59.014Z,3.47
2019-03-12T15:56:27.905Z,3.27
2019-03-12T15:58:56.799Z,3.03
2019-03-12T16:01:25.734Z,3.00
2019-03-12T16:03:54.720Z,3.50
2019-03-12T16:06:26.205Z,3.30
2019-03-12T16:08:54.470Z,3.33
2019-03-12T16:11:23.498Z,3.30
2019-03-12T16:13:52.434Z,3.47
2019-03-12T16:16:21.314Z,2.83
2019-03-12T16:18:50.309Z,3.30
2019-03-12T16:21:19.156Z,3.40
2019-03-12T16:23:48.045Z,3.30
2019-03-12T16:26:16.938Z,3.17
2019-03-12T16:28:45.814Z,3.13
2019-03-12T16:31:14.750Z,4.03
2019-03-12T16:33:43.592Z,2.87
2019-03-12T16:36:12.494Z,3.90
2019-03-12T16:38:41.402Z,3.30
2019-03-12T16:41:10.320Z,3.10
2019-03-12T16:43:39.154Z,3.07
2019-03-12T16:46:07.949Z,3.53
2019-03-12T16:48:38.619Z,3.33
2019-03-12T16:51:07.389Z,3.40
2019-03-12T16:53:36.365Z,3.87
2019-03-12T16:56:05.370Z,3.90
2019-03-12T16:58:34.309Z,3.73
2019-03-12T17:01:03.596Z,3.40
2019-03-12T17:03:32.770Z,4.77
2019-03-12T17:06:01.849Z,3.20
2019-03-12T17:08:30.758Z,3.53
2019-03-12T17:11:02.615Z,4.40
2019-03-12T17:13:30.506Z,4.20
2019-03-12T17:15:59.456Z,3.70
2019-03-12T17:18:28.487Z,3.57
2019-03-12T17:20:57.354Z,3.57
2019-03-12T17:23:26.331Z,2.97
2019-03-12T17:25:55.405Z,3.53
2019-03-12T17:28:24.314Z,4.40
2019-03-12T17:30:53.301Z,3.80
2019-03-12T17:33:22.541Z,4.27
2019-03-12T17:35:52.657Z,3.70
2019-03-12T17:38:21.631Z,3.47
2019-03-12T17:40:50.466Z,3.90
2019-03-12T17:43:19.396Z,4.00
2019-03-12T17:45:48.298Z,3.53
2019-03-12T17:48:17.123Z,3.57
2019-03-12T17:50:46.087Z,3.80
2019-03-12T17:53:14.998Z,3.47
2019-03-12T17:55:43.895Z,3.27
2019-03-12T17:58:12.849Z,3.83
2019-03-12T18:00:43.248Z,4.07
2019-03-12T18:03:12.250Z,3.63
2019-03-12T18:05:41.177Z,4.20
2019-03-12T18:08:10.062Z,4.10
2019-03-12T18:10:39.012Z,4.00
2019-03-12T18:13:07.911Z,4.67
2019-03-12T18:15:36.970Z,4.30
2019-03-12T18:18:06.081Z,4.70
2019-03-12T18:20:35.050Z,4.27
2019-03-12T18:23:03.990Z,3.63
2019-03-12T18:25:33.039Z,4.10
2019-03-12T18:28:02.194Z,4.00
2019-03-12T18:30:31.015Z,4.03
2019-03-12T18:32:59.929Z,4.10
2019-03-12T18:35:29.006Z,4.03
2019-03-12T18:37:58.053Z,3.73
2019-03-12T18:40:27.310Z,4.63
2019-03-12T18:42:56.426Z,4.60
2019-03-12T18:45:25.648Z,4.23
2019-03-12T18:47:54.525Z,3.43
2019-03-12T18:50:23.768Z,3.20
2019-03-12T18:52:52.783Z,2.40
2019-03-12T18:55:44.849Z,2.53
2019-03-12T18:58:13.854Z,3.03
2019-03-12T19:00:43.767Z,2.17
2019-03-12T19:03:12.669Z,2.20
2019-03-12T19:05:44.393Z,2.10
2019-03-12T19:08:13.543Z,2.30
2019-03-12T19:10:42.541Z,1.70
2019-03-12T19:13:11.614Z,1.63
2019-03-12T19:15:41.667Z,1.40
2019-03-12T19:18:10.574Z,2.17
2019-03-12T19:20:39.515Z,1.67
2019-03-12T19:23:08.527Z,1.57
2019-03-12T19:25:38.562Z,1.90
2019-03-12T19:28:07.905Z,1.13
2019-03-12T19:30:36.993Z,1.90
2019-03-12T19:33:08.527Z,1.10
2019-03-12T19:35:37.525Z,1.97
2019-03-12T19:38:12.725Z,1.37
2019-03-12T19:40:41.766Z,1.80
2019-03-12T19:43:10.850Z,1.77
2019-03-12T19:45:39.883Z,1.70
2019-03-12T19:48:08.745Z,1.73
2019-03-12T19:50:37.713Z,1.50
2019-03-12T19:53:06.672Z,1.73
2019-03-12T19:55:38.301Z,1.97
2019-03-12T19:58:07.279Z,1.33
2019-03-12T20:00:36.862Z,1.93
2019-03-12T20:03:11.719Z,1.17
2019-03-12T20:05:36.607Z,1.83
2019-03-12T20:08:05.743Z,1.30
2019-03-12T20:10:58.902Z,1.60
2019-03-12T20:14:20.950Z,2.00
2019-03-12T20:17:40.161Z,1.60
2019-03-12T20:21:11.576Z,2.10
2019-03-12T20:24:20.043Z,1.90
2019-03-12T20:28:00.530Z,1.97
2019-03-12T20:31:16.773Z,1.43
2019-03-12T20:34:33.334Z,1.63
2019-03-12T20:37:38.196Z,1.43
2019-03-12T20:41:05.070Z,1.47
2019-03-12T20:44:28.975Z,2.30
2019-03-12T20:47:44.488Z,2.03
2019-03-12T20:51:01.288Z,1.43
2019-03-12T20:53:59.059Z,1.97
2019-03-12T20:57:09.331Z,2.27
2019-03-12T21:00:21.519Z,2.10
2019-03-12T21:03:44.016Z,2.30
2019-03-12T21:07:02.354Z,2.67
2019-03-12T21:10:10.603Z,2.50
2019-03-12T21:13:26.615Z,2.03
2019-03-12T21:16:51.782Z,2.20
2019-03-12T21:20:08.685Z,2.17
2019-03-12T21:23:04.512Z,1.77
2019-03-12T21:25:55.465Z,2.30
2019-03-12T21:29:13.991Z,2.07
2019-03-12T21:31:42.848Z,3.57
2019-03-12T21:34:11.745Z,2.03
2019-03-12T21:36:40.798Z,2.40
2019-03-12T21:39:11.858Z,1.73
2019-03-12T21:41:40.795Z,2.10
2019-03-12T21:44:09.720Z,1.93
2019-03-12T21:46:38.813Z,2.97
2019-03-12T21:49:08.355Z,2.53
2019-03-12T21:51:37.345Z,3.10
2019-03-12T21:54:06.267Z,2.70
2019-03-12T21:56:35.291Z,2.87
2019-03-12T21:59:04.245Z,2.73
2019-03-12T22:01:33.089Z,3.20
2019-03-12T22:04:02.114Z,1.93
2019-03-12T22:06:31.099Z,2.50
2019-03-12T22:09:00.045Z,2.03
2019-03-12T22:11:28.975Z,2.50
2019-03-12T22:13:57.818Z,2.40
2019-03-12T22:16:26.878Z,1.73
2019-03-12T22:18:55.723Z,1.80
2019-03-12T22:21:32.559Z,4.13
2019-03-12T22:24:05.547Z,2.10
2019-03-12T22:26:34.475Z,2.77
2019-03-12T22:29:03.483Z,2.40
2019-03-12T22:31:32.365Z,2.87
2019-03-12T22:34:01.322Z,2.67
2019-03-12T22:36:30.266Z,2.97
2019-03-12T22:38:59.178Z,2.80
2019-03-12T22:41:28.150Z,3.50
2019-03-12T22:43:57.101Z,2.30
2019-03-12T22:46:25.939Z,2.97
2019-03-12T22:48:54.906Z,2.50
2019-03-12T22:51:23.914Z,2.60
2019-03-12T22:53:52.742Z,2.73
2019-03-12T22:56:21.682Z,3.90
2019-03-12T22:58:50.483Z,2.80
2019-03-12T23:01:19.481Z,3.43
2019-03-12T23:03:48.333Z,2.60
2019-03-12T23:06:17.283Z,2.47
2019-03-12T23:08:46.314Z,2.13
2019-03-12T23:11:15.331Z,2.73
2019-03-12T23:13:44.232Z,2.10
2019-03-12T23:16:13.286Z,2.90
2019-03-12T23:18:42.220Z,3.33
2019-03-12T23:21:11.063Z,2.30
2019-03-12T23:23:40.083Z,2.60
2019-03-12T23:26:09.071Z,2.33
2019-03-12T23:28:38.038Z,3.03
2019-03-12T23:31:06.938Z,2.43
2019-03-12T23:33:35.993Z,2.83
2019-03-12T23:36:05.019Z,2.00
2019-03-12T23:38:34.004Z,2.60
2019-03-12T23:41:02.914Z,2.70
2019-03-12T23:43:31.930Z,2.77
2019-03-12T23:46:00.977Z,3.00
2019-03-12T23:48:29.970Z,2.13
2019-03-12T23:50:59.064Z,2.50
2019-03-12T23:53:28.034Z,3.60
2019-03-12T23:55:57.065Z,2.80
2019-03-12T23:58:30.795Z,2.90
